Time;durP1;ratioP1;P1;durP2;ratioP2;P2;SDS_P1;SDS_P2;PMS_P1;PMS_P2;Temp;Humidity;BMP_temperature;BMP_pressure;BME280_temperature;BME280_humidity;BME280_pressure;Samples;Min_cycle;Max_cycle;Signal;HPM_P1;HPM_P2
2023/01/04 00:02:34;;;;;;;4.28;1.98;;;;;;;;;;10522566;28;20213;-78
2023/01/04 00:07:35;;;;;;;1.98;1.88;;;;;;;;;;10522317;28;20213;-76
2023/01/04 00:12:36;;;;;;;1.65;1.55;;;;;;;;;;10518457;28;20209;-77
2023/01/04 00:17:37;;;;;;;2.15;1.88;;;;;;;;;;10510730;28;20595;-77
2023/01/04 00:22:38;;;;;;;2.63;2.45;;;;;;;;;;10516816;28;20231;-76
2023/01/04 00:27:39;;;;;;;4.10;2.67;;;;;;;;;;10501657;28;20300;-76
2023/01/04 00:32:40;;;;;;;2.35;2.15;;;;;;;;;;10511831;28;20202;-76
2023/01/04 00:37:41;;;;;;;3.20;2.10;;;;;;;;;;10515009;28;20225;-76
2023/01/04 00:42:42;;;;;;;2.40;2.20;;;;;;;;;;10516783;28;20692;-76
2023/01/04 00:47:43;;;;;;;3.78;2.92;;;;;;;;;;10511627;28;20206;-76
2023/01/04 00:52:44;;;;;;;2.05;1.95;;;;;;;;;;10511256;28;20214;-77
2023/01/04 00:57:45;;;;;;;2.17;1.98;;;;;;;;;;10508977;28;20197;-75
2023/01/04 01:02:46;;;;;;;3.10;2.30;;;;;;;;;;10513210;28;20210;-75
2023/01/04 01:07:47;;;;;;;3.63;2.33;;;;;;;;;;10498374;28;20305;-75
2023/01/04 01:12:48;;;;;;;1.65;1.55;;;;;;;;;;10509123;28;20218;-74
2023/01/04 01:17:49;;;;;;;3.20;2.25;;;;;;;;;;10511607;28;20210;-74
2023/01/04 01:22:50;;;;;;;4.00;2.10;;;;;;;;;;10512303;28;20213;-75
2023/01/04 01:27:51;;;;;;;6.47;2.00;;;;;;;;;;10504135;28;20217;-76
2023/01/04 01:32:53;;;;;;;2.00;1.90;;;;;;;;;;10510057;28;20206;-76
2023/01/04 01:37:54;;;;;;;3.13;1.50;;;;;;;;;;10508486;28;20310;-76
2023/01/04 01:42:55;;;;;;;3.33;2.92;;;;;;;;;;10509685;28;20249;-76
2023/01/04 01:47:58;;;;;;;3.20;1.60;;;;;;;;;;10507859;28;20345;-76
2023/01/04 01:53:00;;;;;;;2.42;2.17;;;;;;;;;;10506914;28;20817;-74
2023/01/04 01:58:02;;;;;;;2.83;2.17;;;;;;;;;;10493754;28;20229;-75
2023/01/04 02:03:17;;;;;;;2.00;1.90;;;;;;;;;;10506462;28;20303;-75
2023/01/04 02:08:21;;;;;;;4.95;1.80;;;;;;;;;;10515760;28;20697;-76
2023/01/04 02:14:25;;;;;;;2.13;1.95;;;;;;;;;;10495615;28;20213;-76
2023/01/04 02:18:53;;;;;;;1.60;1.55;;;;;;;;;;10510180;28;20225;-76
2023/01/04 02:24:04;;;;;;;3.28;1.95;;;;;;;;;;10501215;28;20437;-73
2023/01/04 02:29:05;;;;;;;1.73;1.52;;;;;;;;;;10505896;28;20343;-76
2023/01/04 02:34:22;;;;;;;1.38;1.27;;;;;;;;;;10506664;28;20226;-76
2023/01/04 02:39:34;;;;;;;2.97;1.45;;;;;;;;;;10500765;28;20331;-75
2023/01/04 02:44:54;;;;;;;2.90;1.42;;;;;;;;;;10508282;28;20339;-75
2023/01/04 02:55:15;;;;;;;2.00;1.40;;;;;;;;;;10500582;28;20217;-75
2023/01/04 03:00:33;;;;;;;2.60;1.42;;;;;;;;;;10498797;28;20174;-76
2023/01/04 03:16:28;;;;;;;3.08;1.63;;;;;;;;;;10491720;28;20236;-75
2023/01/04 03:21:30;;;;;;;2.05;1.08;;;;;;;;;;10512454;28;20300;-76
2023/01/04 03:37:31;;;;;;;1.65;1.55;;;;;;;;;;10505390;28;20228;-74
2023/01/04 03:53:21;;;;;;;6.55;1.67;;;;;;;;;;10509490;28;20202;-73
2023/01/04 03:58:23;;;;;;;2.20;1.08;;;;;;;;;;10500273;28;20210;-75
2023/01/04 04:03:24;;;;;;;0.82;0.82;;;;;;;;;;10505920;28;20256;-76
2023/01/04 04:08:28;;;;;;;0.98;0.95;;;;;;;;;;10506102;28;20225;-76
2023/01/04 04:13:29;;;;;;;1.42;1.10;;;;;;;;;;10506100;28;20221;-76
2023/01/04 04:18:30;;;;;;;3.42;1.02;;;;;;;;;;10508555;28;20224;-76
2023/01/04 04:23:31;;;;;;;1.75;0.60;;;;;;;;;;10498799;28;20211;-77
2023/01/04 04:28:32;;;;;;;1.00;0.90;;;;;;;;;;10502913;28;20271;-77
2023/01/04 04:33:33;;;;;;;2.03;0.95;;;;;;;;;;10516497;28;20316;-77
2023/01/04 04:38:35;;;;;;;1.75;0.82;;;;;;;;;;10521820;28;20210;-76
2023/01/04 04:43:36;;;;;;;1.85;0.70;;;;;;;;;;10494983;28;20271;-77
2023/01/04 04:48:37;;;;;;;1.30;1.10;;;;;;;;;;10506394;28;20213;-77
2023/01/04 04:53:38;;;;;;;1.65;0.90;;;;;;;;;;10519960;28;20237;-76
2023/01/04 04:58:39;;;;;;;0.75;0.60;;;;;;;;;;10496733;28;20214;-77
2023/01/04 05:03:40;;;;;;;0.68;0.68;;;;;;;;;;10519729;28;20241;-77
2023/01/04 05:08:41;;;;;;;1.75;0.70;;;;;;;;;;10519607;28;20210;-78
2023/01/04 05:13:42;;;;;;;1.38;0.40;;;;;;;;;;10507426;28;20206;-77
2023/01/04 05:18:43;;;;;;;0.50;0.50;;;;;;;;;;10504783;28;20300;-78
2023/01/04 05:23:44;;;;;;;0.77;0.60;;;;;;;;;;10512319;28;20209;-77
2023/01/04 05:28:45;;;;;;;0.30;0.30;;;;;;;;;;10511342;28;20217;-76
2023/01/04 05:33:46;;;;;;;3.80;0.60;;;;;;;;;;10514790;28;20259;-78
2023/01/04 05:38:47;;;;;;;1.10;0.90;;;;;;;;;;10507110;28;20300;-77
2023/01/04 05:43:48;;;;;;;0.47;0.47;;;;;;;;;;10516092;28;20202;-78
2023/01/04 05:48:49;;;;;;;0.45;0.40;;;;;;;;;;10506577;28;20221;-75
2023/01/04 05:53:50;;;;;;;0.40;0.40;;;;;;;;;;10498333;28;20703;-76
2023/01/04 05:58:51;;;;;;;1.85;0.47;;;;;;;;;;10506309;28;20685;-78
2023/01/04 06:03:52;;;;;;;1.33;0.40;;;;;;;;;;10513645;28;20218;-74
2023/01/04 06:08:54;;;;;;;0.82;0.40;;;;;;;;;;10508749;28;20209;-74
2023/01/04 06:13:55;;;;;;;1.85;0.47;;;;;;;;;;10492004;28;21237;-74
2023/01/04 06:18:56;;;;;;;0.82;0.30;;;;;;;;;;10503433;28;20216;-75
2023/01/04 06:23:57;;;;;;;0.52;0.40;;;;;;;;;;10502261;28;20213;-77
2023/01/04 06:28:58;;;;;;;0.40;0.40;;;;;;;;;;10503125;28;20912;-76
2023/01/04 06:33:59;;;;;;;0.45;0.45;;;;;;;;;;10506513;28;20290;-75
2023/01/04 06:39:00;;;;;;;3.08;0.75;;;;;;;;;;10504272;28;20270;-75
2023/01/04 06:44:01;;;;;;;0.50;0.50;;;;;;;;;;10505089;28;20217;-74
2023/01/04 06:49:02;;;;;;;2.85;0.50;;;;;;;;;;10491616;28;20220;-74
2023/01/04 06:54:03;;;;;;;0.28;0.25;;;;;;;;;;10504805;28;20217;-74
2023/01/04 06:59:05;;;;;;;1.25;0.32;;;;;;;;;;10503170;28;20304;-74
2023/01/04 07:04:08;;;;;;;0.52;0.52;;;;;;;;;;10506424;28;20266;-76
2023/01/04 07:09:09;;;;;;;0.35;0.35;;;;;;;;;;10507511;28;20228;-76
2023/01/04 07:14:10;;;;;;;0.55;0.30;;;;;;;;;;10498703;28;20205;-76
2023/01/04 07:19:11;;;;;;;0.50;0.50;;;;;;;;;;10497191;28;20309;-75
2023/01/04 07:24:37;;;;;;;1.40;0.40;;;;;;;;;;10508191;28;20182;-75
2023/01/04 07:30:03;;;;;;;1.10;0.30;;;;;;;;;;10507929;28;20217;-75
2023/01/04 07:35:05;;;;;;;4.28;0.50;;;;;;;;;;10496459;28;20384;-75
2023/01/04 07:40:06;;;;;;;2.28;0.52;;;;;;;;;;10509536;28;20173;-75
2023/01/04 07:45:08;;;;;;;0.60;0.60;;;;;;;;;;10474156;28;20158;-76
2023/01/04 07:50:09;;;;;;;0.40;0.40;;;;;;;;;;10503131;28;20236;-76
2023/01/04 07:55:10;;;;;;;1.10;0.40;;;;;;;;;;10508661;28;20361;-75
2023/01/04 08:00:11;;;;;;;0.30;0.30;;;;;;;;;;10506814;28;20208;-75
2023/01/04 08:05:15;;;;;;;1.15;0.50;;;;;;;;;;10476086;28;20557;-75
2023/01/04 08:10:16;;;;;;;1.85;0.30;;;;;;;;;;10499160;28;20229;-76
2023/01/04 08:15:18;;;;;;;0.40;0.40;;;;;;;;;;10506234;28;20170;-75
2023/01/04 08:20:19;;;;;;;0.45;0.45;;;;;;;;;;10497109;28;20696;-75
2023/01/04 08:25:20;;;;;;;0.30;0.30;;;;;;;;;;10508198;28;20705;-76
2023/01/04 08:30:21;;;;;;;1.85;0.30;;;;;;;;;;10495100;28;20217;-77
2023/01/04 08:35:22;;;;;;;0.32;0.32;;;;;;;;;;10496414;28;20736;-76
2023/01/04 08:40:23;;;;;;;0.20;0.20;;;;;;;;;;10514095;28;20213;-75
2023/01/04 08:45:24;;;;;;;0.20;0.20;;;;;;;;;;10511831;28;21111;-75
2023/01/04 08:50:25;;;;;;;0.22;0.22;;;;;;;;;;10509018;28;20222;-74
2023/01/04 08:55:26;;;;;;;0.20;0.20;;;;;;;;;;10495950;28;20226;-77
2023/01/04 09:00:28;;;;;;;0.30;0.30;;;;;;;;;;10507147;28;20228;-77
2023/01/04 09:05:31;;;;;;;2.50;0.47;;;;;;;;;;10509482;28;20270;-78
2023/01/04 09:10:32;;;;;;;0.30;0.30;;;;;;;;;;10495616;28;20224;-78
2023/01/04 09:15:34;;;;;;;0.60;0.60;;;;;;;;;;10514502;28;20712;-80
2023/01/04 09:20:37;;;;;;;0.35;0.35;;;;;;;;;;10506588;28;20221;-78
2023/01/04 09:25:39;;;;;;;1.40;0.40;;;;;;;;;;10486155;28;20681;-79
2023/01/04 09:30:40;;;;;;;0.43;0.43;;;;;;;;;;10492518;28;20628;-80
2023/01/04 09:35:41;;;;;;;0.38;0.38;;;;;;;;;;10507076;28;20623;-77
2023/01/04 09:41:04;;;;;;;0.55;0.55;;;;;;;;;;10510995;28;20244;-78
2023/01/04 09:46:07;;;;;;;0.40;0.40;;;;;;;;;;10503293;28;20728;-78
2023/01/04 09:51:14;;;;;;;2.15;0.73;;;;;;;;;;10504746;28;20224;-79
2023/01/04 09:56:15;;;;;;;0.88;0.45;;;;;;;;;;10505111;28;20210;-79
2023/01/04 10:01:20;;;;;;;0.30;0.30;;;;;;;;;;10507103;28;20251;-78
2023/01/04 10:06:21;;;;;;;0.40;0.40;;;;;;;;;;10511036;28;20276;-78
2023/01/04 10:11:25;;;;;;;0.57;0.57;;;;;;;;;;10502794;28;20696;-78
2023/01/04 10:16:34;;;;;;;0.40;0.40;;;;;;;;;;10500650;28;20216;-79
2023/01/04 10:21:48;;;;;;;0.20;0.20;;;;;;;;;;10491732;28;20217;-77
2023/01/04 10:26:51;;;;;;;0.40;0.40;;;;;;;;;;10509281;28;20348;-71
2023/01/04 10:31:55;;;;;;;0.50;0.50;;;;;;;;;;10491207;28;20262;-74
2023/01/04 10:36:57;;;;;;;0.57;0.52;;;;;;;;;;10505076;28;20708;-75
2023/01/04 10:42:11;;;;;;;0.52;0.43;;;;;;;;;;10508976;28;20748;-75
2023/01/04 10:47:30;;;;;;;0.40;0.40;;;;;;;;;;10491686;28;20984;-79
2023/01/04 10:52:35;;;;;;;0.50;0.50;;;;;;;;;;10499481;28;20205;-78
2023/01/04 10:57:47;;;;;;;1.00;0.52;;;;;;;;;;10505108;28;20209;-79
2023/01/04 11:02:58;;;;;;;0.50;0.50;;;;;;;;;;10509317;28;20252;-80
2023/01/04 11:08:17;;;;;;;0.32;0.32;;;;;;;;;;10501300;28;20308;-78
2023/01/04 11:13:19;;;;;;;0.30;0.30;;;;;;;;;;10509752;28;20193;-79
2023/01/04 11:18:20;;;;;;;0.30;0.30;;;;;;;;;;10508512;28;20308;-78
2023/01/04 11:23:21;;;;;;;0.32;0.30;;;;;;;;;;10491710;28;20206;-79
2023/01/04 11:28:25;;;;;;;1.75;0.40;;;;;;;;;;10491464;28;20209;-82
2023/01/04 11:33:26;;;;;;;0.75;0.30;;;;;;;;;;10508541;28;20226;-79
2023/01/04 11:38:28;;;;;;;0.20;0.20;;;;;;;;;;10496671;28;20218;-82
2023/01/04 11:43:30;;;;;;;0.20;0.20;;;;;;;;;;10518383;28;20222;-82
2023/01/04 11:48:33;;;;;;;0.30;0.30;;;;;;;;;;10479750;28;20217;-78
2023/01/04 11:53:35;;;;;;;0.30;0.30;;;;;;;;;;10516526;28;20201;-80
2023/01/04 11:58:36;;;;;;;0.10;0.10;;;;;;;;;;10518639;28;21886;-78
2023/01/04 12:03:39;;;;;;;0.20;0.20;;;;;;;;;;10513758;28;20539;-79
2023/01/04 12:08:41;;;;;;;0.20;0.20;;;;;;;;;;10499734;28;20225;-79
2023/01/04 12:13:42;;;;;;;1.75;0.30;;;;;;;;;;10515142;28;20213;-76
2023/01/04 12:18:44;;;;;;;0.30;0.30;;;;;;;;;;10499887;28;20948;-75
2023/01/04 12:23:46;;;;;;;0.20;0.20;;;;;;;;;;10509492;28;20218;-76
2023/01/04 12:29:05;;;;;;;0.40;0.40;;;;;;;;;;10511469;28;20228;-76
2023/01/04 12:34:15;;;;;;;0.20;0.20;;;;;;;;;;10510140;28;20256;-76
2023/01/04 12:39:17;;;;;;;0.20;0.20;;;;;;;;;;10503182;28;20233;-76
2023/01/04 12:44:42;;;;;;;0.20;0.20;;;;;;;;;;10506033;28;20209;-76
2023/01/04 12:49:44;;;;;;;0.20;0.20;;;;;;;;;;10508009;28;20217;-81
2023/01/04 12:54:53;;;;;;;0.17;0.17;;;;;;;;;;10508776;28;20248;-76
2023/01/04 12:59:56;;;;;;;0.30;0.30;;;;;;;;;;10509957;28;20923;-78
2023/01/04 13:05:23;;;;;;;0.20;0.20;;;;;;;;;;10489849;28;20209;-76
2023/01/04 13:10:32;;;;;;;0.20;0.20;;;;;;;;;;10506932;28;20222;-77
2023/01/04 13:15:33;;;;;;;0.10;0.10;;;;;;;;;;10514861;28;20290;-77
2023/01/04 13:20:37;;;;;;;0.10;0.10;;;;;;;;;;10505528;28;20744;-78
2023/01/04 13:25:38;;;;;;;0.10;0.10;;;;;;;;;;10495906;28;20214;-80
2023/01/04 13:30:39;;;;;;;0.10;0.10;;;;;;;;;;10499305;28;20298;-80
2023/01/04 13:35:40;;;;;;;1.08;0.10;;;;;;;;;;10503133;28;20221;-78
2023/01/04 13:40:45;;;;;;;0.10;0.10;;;;;;;;;;10498686;28;20208;-79
2023/01/04 13:45:58;;;;;;;0.10;0.10;;;;;;;;;;10497701;28;20213;-79
2023/01/04 13:50:59;;;;;;;5.20;0.20;;;;;;;;;;10512288;28;20226;-77
2023/01/04 13:56:02;;;;;;;0.10;0.10;;;;;;;;;;10493636;28;20304;-78
2023/01/04 14:01:06;;;;;;;0.20;0.10;;;;;;;;;;10499164;28;20202;-77
2023/01/04 14:06:12;;;;;;;0.10;0.10;;;;;;;;;;10486803;28;21292;-79
2023/01/04 14:11:57;;;;;;;0.10;0.10;;;;;;;;;;10493000;28;20217;-76
2023/01/04 14:16:40;;;;;;;0.10;0.10;;;;;;;;;;10509119;28;20648;-78
2023/01/04 14:21:41;;;;;;;0.10;0.10;;;;;;;;;;10512888;28;20225;-79
2023/01/04 14:26:42;;;;;;;0.10;0.10;;;;;;;;;;10508231;28;20330;-79
2023/01/04 14:31:43;;;;;;;0.10;0.10;;;;;;;;;;10505570;28;20696;-80
2023/01/04 14:36:44;;;;;;;0.10;0.10;;;;;;;;;;10518519;28;20267;-79
2023/01/04 14:41:48;;;;;;;0.10;0.10;;;;;;;;;;10513259;28;20604;-79
2023/01/04 14:46:51;;;;;;;0.10;0.10;;;;;;;;;;10516604;28;20825;-81
2023/01/04 14:51:53;;;;;;;0.10;0.10;;;;;;;;;;10490476;28;20252;-83
2023/01/04 14:56:55;;;;;;;0.75;0.10;;;;;;;;;;10485976;28;20216;-80
2023/01/04 15:01:56;;;;;;;0.10;0.10;;;;;;;;;;10501025;28;20252;-82
2023/01/04 15:06:59;;;;;;;0.20;0.20;;;;;;;;;;10485999;28;20221;-83
2023/01/04 15:12:00;;;;;;;0.10;0.10;;;;;;;;;;10475969;28;20422;-82
2023/01/04 15:17:01;;;;;;;0.10;0.10;;;;;;;;;;10502843;28;20212;-83
2023/01/04 15:22:03;;;;;;;0.10;0.10;;;;;;;;;;10505698;28;20598;-82
2023/01/04 15:27:04;;;;;;;0.20;0.20;;;;;;;;;;10479633;28;20208;-89
2023/01/04 15:32:05;;;;;;;0.20;0.20;;;;;;;;;;10495610;28;20323;-85
2023/01/04 15:37:07;;;;;;;0.30;0.30;;;;;;;;;;10503279;28;20225;-78
2023/01/04 15:47:32;;;;;;;0.20;0.20;;;;;;;;;;10504270;28;20716;-75
2023/01/04 15:52:33;;;;;;;0.10;0.10;;;;;;;;;;10500550;28;20206;-80
2023/01/04 15:57:35;;;;;;;0.28;0.28;;;;;;;;;;10502450;28;20198;-78
2023/01/04 16:02:36;;;;;;;0.38;0.30;;;;;;;;;;10501975;28;20769;-78
2023/01/04 16:07:37;;;;;;;0.20;0.20;;;;;;;;;;10497679;28;20614;-78
2023/01/04 16:12:41;;;;;;;0.28;0.28;;;;;;;;;;10504206;28;20210;-76
2023/01/04 16:17:42;;;;;;;0.20;0.20;;;;;;;;;;10511989;28;20217;-80
2023/01/04 16:22:43;;;;;;;0.20;0.20;;;;;;;;;;10515259;28;20230;-80
2023/01/04 16:27:44;;;;;;;0.20;0.20;;;;;;;;;;10514561;28;20213;-80
2023/01/04 16:32:46;;;;;;;0.20;0.20;;;;;;;;;;10517209;28;20206;-81
2023/01/04 16:37:47;;;;;;;0.20;0.20;;;;;;;;;;10493432;28;20221;-81
2023/01/04 16:42:50;;;;;;;0.15;0.15;;;;;;;;;;10507280;28;21096;-78
2023/01/04 16:47:52;;;;;;;0.20;0.20;;;;;;;;;;10491173;28;23532;-80
2023/01/04 16:52:53;;;;;;;0.10;0.10;;;;;;;;;;10502480;28;20214;-80
2023/01/04 16:57:54;;;;;;;0.10;0.10;;;;;;;;;;10501602;28;20642;-80
2023/01/04 17:02:56;;;;;;;0.30;0.30;;;;;;;;;;10508442;28;20216;-82
2023/01/04 17:07:57;;;;;;;0.50;0.50;;;;;;;;;;10492442;28;20603;-80
2023/01/04 17:12:58;;;;;;;0.47;0.47;;;;;;;;;;10513468;28;20236;-80
2023/01/04 17:17:59;;;;;;;0.40;0.40;;;;;;;;;;10500718;28;20250;-80
2023/01/04 17:23:00;;;;;;;0.82;0.82;;;;;;;;;;10508007;28;20217;-80
2023/01/04 17:28:01;;;;;;;0.50;0.50;;;;;;;;;;10497278;28;20213;-77
2023/01/04 17:33:02;;;;;;;0.30;0.30;;;;;;;;;;10493385;28;20239;-81
2023/01/04 17:38:04;;;;;;;4.25;3.85;;;;;;;;;;10521956;28;20229;-82
2023/01/04 17:43:05;;;;;;;1.13;1.10;;;;;;;;;;10516573;28;20209;-81
2023/01/04 17:48:06;;;;;;;0.90;0.90;;;;;;;;;;10511577;28;20228;-80
2023/01/04 17:53:08;;;;;;;0.90;0.10;;;;;;;;;;10510921;28;20217;-83
2023/01/04 17:58:09;;;;;;;0.10;0.10;;;;;;;;;;10505446;28;20757;-79
2023/01/04 18:03:10;;;;;;;0.20;0.20;;;;;;;;;;10512905;28;20259;-79
2023/01/04 18:08:11;;;;;;;1.88;0.15;;;;;;;;;;10514698;28;20305;-81
2023/01/04 18:13:12;;;;;;;0.10;0.10;;;;;;;;;;10509408;28;20640;-82
2023/01/04 18:18:13;;;;;;;0.15;0.15;;;;;;;;;;10508202;28;20715;-80
2023/01/04 18:23:14;;;;;;;0.10;0.10;;;;;;;;;;10491269;28;20694;-82
2023/01/04 18:28:16;;;;;;;0.13;0.13;;;;;;;;;;10504033;28;20214;-83
2023/01/04 18:33:17;;;;;;;0.30;0.30;;;;;;;;;;10522678;28;20208;-81
2023/01/04 18:38:18;;;;;;;0.10;0.10;;;;;;;;;;10507625;28;20241;-80
2023/01/04 18:43:19;;;;;;;0.22;0.17;;;;;;;;;;10505497;28;20221;-78
2023/01/04 18:48:20;;;;;;;0.30;0.30;;;;;;;;;;10502565;28;20214;-72
2023/01/04 18:53:21;;;;;;;1.25;0.40;;;;;;;;;;10506028;28;20581;-74
2023/01/04 18:58:22;;;;;;;1.00;0.30;;;;;;;;;;10501624;28;20228;-73
2023/01/04 19:03:23;;;;;;;0.55;0.20;;;;;;;;;;10479070;28;20209;-77
2023/01/04 19:08:25;;;;;;;0.75;0.40;;;;;;;;;;10493154;28;20210;-80
2023/01/04 19:13:27;;;;;;;0.55;0.30;;;;;;;;;;10512036;28;20206;-92
2023/01/04 19:18:28;;;;;;;0.30;0.30;;;;;;;;;;10518677;28;20239;-79
2023/01/04 19:23:29;;;;;;;0.75;0.40;;;;;;;;;;10504399;28;20212;-81
2023/01/04 19:28:30;;;;;;;0.50;0.50;;;;;;;;;;10489656;28;20210;-79
2023/01/04 19:33:31;;;;;;;0.95;0.45;;;;;;;;;;10487707;28;20221;-82
2023/01/04 19:38:33;;;;;;;0.32;0.32;;;;;;;;;;10491526;28;20214;-79
2023/01/04 19:43:35;;;;;;;2.40;0.68;;;;;;;;;;10499282;28;20209;-79
2023/01/04 19:48:37;;;;;;;1.25;0.68;;;;;;;;;;10506558;28;20233;-79
2023/01/04 19:53:40;;;;;;;0.80;0.57;;;;;;;;;;10511023;28;20210;-78
2023/01/04 19:58:41;;;;;;;1.35;0.70;;;;;;;;;;10510533;28;20220;-77
2023/01/04 20:03:42;;;;;;;1.00;0.60;;;;;;;;;;10505456;28;20209;-76
2023/01/04 20:08:44;;;;;;;2.65;0.50;;;;;;;;;;10499959;28;20224;-80
2023/01/04 20:13:45;;;;;;;3.63;0.80;;;;;;;;;;10500664;28;20201;-74
2023/01/04 20:18:46;;;;;;;2.25;0.80;;;;;;;;;;10494173;28;20312;-76
2023/01/04 20:23:47;;;;;;;2.53;1.05;;;;;;;;;;10492164;28;20205;-79
2023/01/04 20:28:48;;;;;;;2.30;0.90;;;;;;;;;;10500308;28;20258;-77
2023/01/04 20:33:49;;;;;;;1.25;0.90;;;;;;;;;;10477658;28;20233;-74
2023/01/04 20:38:50;;;;;;;1.45;1.20;;;;;;;;;;10432087;28;20213;-74
2023/01/04 20:43:51;;;;;;;2.30;1.13;;;;;;;;;;10463089;28;20246;-81
2023/01/04 20:48:53;;;;;;;5.68;1.27;;;;;;;;;;10461239;28;20271;-83
2023/01/04 20:53:58;;;;;;;3.95;1.10;;;;;;;;;;10467255;28;20245;-83
2023/01/04 20:58:59;;;;;;;1.30;1.00;;;;;;;;;;10462783;28;20308;-81
2023/01/04 21:04:00;;;;;;;2.63;1.25;;;;;;;;;;10464374;28;20213;-82
2023/01/04 21:09:01;;;;;;;2.90;1.25;;;;;;;;;;10456357;28;20226;-82
2023/01/04 21:14:03;;;;;;;2.90;1.10;;;;;;;;;;10454318;28;20206;-84
2023/01/04 21:19:04;;;;;;;2.03;1.15;;;;;;;;;;10453625;28;20218;-84
2023/01/04 21:24:05;;;;;;;1.27;1.00;;;;;;;;;;10468513;28;20214;-82
2023/01/04 21:29:06;;;;;;;3.42;0.85;;;;;;;;;;10468773;28;20210;-86
2023/01/04 21:34:07;;;;;;;3.45;0.90;;;;;;;;;;10470515;28;20280;-83
2023/01/04 21:39:08;;;;;;;5.30;1.27;;;;;;;;;;10491302;28;20201;-83
2023/01/04 21:44:09;;;;;;;2.58;0.80;;;;;;;;;;10500255;28;20217;-84
2023/01/04 21:49:10;;;;;;;1.27;0.60;;;;;;;;;;10507294;28;20217;-83
2023/01/04 21:54:11;;;;;;;0.88;0.88;;;;;;;;;;10513073;28;20216;-82
2023/01/04 21:59:12;;;;;;;1.15;0.93;;;;;;;;;;10510649;28;20221;-83
2023/01/04 22:04:13;;;;;;;2.30;0.80;;;;;;;;;;10510027;28;20213;-82
2023/01/04 22:09:15;;;;;;;0.75;0.40;;;;;;;;;;10505184;28;20359;-84
2023/01/04 22:14:16;;;;;;;1.27;0.70;;;;;;;;;;10508602;28;20210;-84
2023/01/04 22:19:17;;;;;;;2.97;0.88;;;;;;;;;;10508893;28;20220;-86
2023/01/04 22:24:18;;;;;;;3.58;1.10;;;;;;;;;;10506873;28;20216;-78
2023/01/04 22:29:20;;;;;;;3.45;0.50;;;;;;;;;;10503485;28;20225;-79
2023/01/04 22:34:23;;;;;;;1.75;0.98;;;;;;;;;;10490310;28;20287;-82
2023/01/04 22:39:24;;;;;;;2.08;0.57;;;;;;;;;;10501907;28;20202;-82
2023/01/04 22:44:25;;;;;;;3.40;0.82;;;;;;;;;;10507133;28;20725;-82
2023/01/04 22:49:26;;;;;;;3.10;0.60;;;;;;;;;;10501542;28;20356;-83
2023/01/04 22:54:30;;;;;;;3.92;0.80;;;;;;;;;;10504925;28;20247;-82
2023/01/04 22:59:31;;;;;;;2.55;0.70;;;;;;;;;;10476685;28;20791;-79
2023/01/04 23:04:32;;;;;;;0.80;0.40;;;;;;;;;;10489461;28;20840;-77
2023/01/04 23:09:33;;;;;;;1.75;0.30;;;;;;;;;;10491437;28;20218;-77
2023/01/04 23:14:34;;;;;;;0.30;0.30;;;;;;;;;;10498836;28;20217;-76
2023/01/04 23:19:35;;;;;;;1.45;0.40;;;;;;;;;;10502015;28;20667;-76
2023/01/04 23:24:38;;;;;;;3.00;0.60;;;;;;;;;;10500998;28;20249;-75
2023/01/04 23:29:39;;;;;;;2.85;0.65;;;;;;;;;;10511735;28;20700;-76
2023/01/04 23:34:40;;;;;;;3.60;0.60;;;;;;;;;;10491873;28;20305;-76
2023/01/04 23:39:41;;;;;;;1.92;0.52;;;;;;;;;;10502584;28;20245;-73
2023/01/04 23:44:42;;;;;;;0.80;0.77;;;;;;;;;;10493433;28;20206;-76
2023/01/04 23:49:44;;;;;;;7.05;1.05;;;;;;;;;;10505096;28;20630;-77
2023/01/04 23:54:45;;;;;;;3.22;0.73;;;;;;;;;;10506745;28;20935;-77
2023/01/04 23:59:46;;;;;;;1.65;0.70;;;;;;;;;;10505315;28;20212;-77
